Issaquah, Washington
Current Conditions -  °F | °C
As of 3:53 PM on Friday 26 Dec 2014 (Local Time) from KRNT Reporting Station
Clear Clear  
Wind Chill: 38°   Ceiling: Unl
Heat Index: 41°   Visibility: 7mi
Dew Point: 37°   Wind: 5mph
Humidity: 86%   Direction: 310°NW
Pressure: 30.35"   Gusts: NA
Location:  47.53°N, 122.03°W
Report Text: KRNT 262353Z 31004KT 7SM CLR 05/03 A3035 RMK AO2 SLP283 T00500028 10061 20022 56004
Loading
Personal Weather Stations






























Interactive Weather Map New forecast layout! Learn more

10-Day Weather Forecast

Advertisements
Track Severe Weather on mobile